Time;durP1;ratioP1;P1;durP2;ratioP2;P2;SDS_P1;SDS_P2;PMS_P1;PMS_P2;Temp;Humidity;BMP_temperature;BMP_pressure;BME280_temperature;BME280_humidity;BME280_pressure;Samples;Min_cycle;Max_cycle;Signal;HPM_P1;HPM_P2
2023/04/05 00:00:09;;;;;;;;;;;8.50;86.80;;;;;;5142341;27;19915;-61
2023/04/05 00:02:35;;;;;;;;;;;8.40;87.30;;;;;;5142193;27;19914;-61
2023/04/05 00:05:02;;;;;;;;;;;8.50;89.10;;;;;;5142196;27;19955;-61
2023/04/05 00:07:27;;;;;;;;;;;8.40;93.50;;;;;;5142202;27;19907;-61
2023/04/05 00:09:53;;;;;;;;;;;8.40;89.80;;;;;;5142356;27;20346;-61
2023/04/05 00:12:19;;;;;;;;;;;8.40;92.90;;;;;;5142136;27;19914;-61
2023/04/05 00:14:44;;;;;;;;;;;8.30;91.60;;;;;;5142153;27;19939;-61
2023/04/05 00:17:10;;;;;;;;;;;8.40;89.90;;;;;;5141929;27;19914;-61
2023/04/05 00:19:36;;;;;;;;;;;8.20;88.00;;;;;;5141677;27;19914;-60
2023/04/05 00:22:03;;;;;;;;;;;8.30;87.70;;;;;;5141768;27;19911;-61
2023/04/05 00:24:29;;;;;;;;;;;8.20;90.70;;;;;;5141860;27;19911;-61
2023/04/05 00:26:55;;;;;;;;;;;8.20;90.10;;;;;;5141566;27;19923;-61
2023/04/05 00:29:21;;;;;;;;;;;8.20;92.00;;;;;;5141796;27;19957;-61
2023/04/05 00:31:46;;;;;;;;;;;8.20;90.00;;;;;;5141535;27;19998;-61
2023/04/05 00:34:12;;;;;;;;;;;8.20;92.80;;;;;;5141696;27;19994;-61
2023/04/05 00:36:38;;;;;;;;;;;8.20;95.10;;;;;;5141165;27;20393;-61
2023/04/05 00:39:03;;;;;;;;;;;8.10;95.20;;;;;;5141641;27;19907;-61
2023/04/05 00:41:29;;;;;;;;;;;8.20;92.50;;;;;;5141255;27;20326;-61
2023/04/05 00:43:55;;;;;;;;;;;8.10;92.00;;;;;;5141252;27;19929;-61
2023/04/05 00:46:21;;;;;;;;;;;8.10;90.60;;;;;;5141660;27;20735;-61
2023/04/05 00:48:47;;;;;;;;;;;8.10;89.70;;;;;;5140067;27;20438;-61
2023/04/05 00:51:12;;;;;;;;;;;8.20;94.90;;;;;;5141206;27;19907;-61
2023/04/05 00:53:39;;;;;;;;;;;8.10;94.20;;;;;;5141640;27;19909;-61
2023/04/05 00:56:05;;;;;;;;;;;8.00;91.50;;;;;;5141264;27;19907;-61
2023/04/05 00:58:32;;;;;;;;;;;8.00;90.20;;;;;;5140809;27;19914;-61
2023/04/05 01:01:30;;;;;;;;;;;7.90;90.70;;;;;;5141102;27;19907;-61
2023/04/05 01:04:01;;;;;;;;;;;7.90;90.00;;;;;;5084470;27;19911;-61
2023/04/05 01:07:02;;;;;;;;;;;7.90;93.40;;;;;;5140831;27;19933;-61
2023/04/05 01:09:28;;;;;;;;;;;7.80;91.00;;;;;;5037446;28;19910;-61
2023/04/05 01:11:55;;;;;;;;;;;7.80;91.20;;;;;;5119167;27;19914;-61
2023/04/05 01:14:21;;;;;;;;;;;7.80;91.50;;;;;;5140658;27;19958;-61
2023/04/05 01:16:48;;;;;;;;;;;7.80;92.20;;;;;;5140831;27;19907;-61
2023/04/05 01:19:14;;;;;;;;;;;7.80;92.00;;;;;;5140835;27;19960;-61
2023/04/05 01:21:40;;;;;;;;;;;7.80;92.40;;;;;;5140818;27;19997;-61
2023/04/05 01:24:14;;;;;;;;;;;8.10;92.10;;;;;;5140521;27;19943;-61
2023/04/05 01:26:56;;;;;;;;;;;7.80;91.30;;;;;;5140403;27;19920;-61
2023/04/05 01:29:39;;;;;;;;;;;7.80;91.90;;;;;;5140366;27;20386;-61
2023/04/05 01:32:04;;;;;;;;;;;7.80;94.20;;;;;;5140356;27;19918;-61
2023/04/05 01:34:49;;;;;;;;;;;7.90;93.70;;;;;;5140493;27;19907;-60
2023/04/05 01:37:16;;;;;;;;;;;8.00;93.30;;;;;;5140085;27;20374;-61
2023/04/05 01:39:43;;;;;;;;;;;8.00;96.00;;;;;;5140439;27;20304;-61
2023/04/05 01:42:09;;;;;;;;;;;8.00;92.40;;;;;;5140109;27;20350;-61
2023/04/05 01:44:34;;;;;;;;;;;8.10;94.00;;;;;;5140307;27;19976;-61
2023/04/05 01:47:00;;;;;;;;;;;8.10;92.80;;;;;;5140312;27;19939;-61
2023/04/05 01:49:25;;;;;;;;;;;8.20;96.20;;;;;;5140493;27;20254;-61
2023/04/05 01:51:51;;;;;;;;;;;8.20;94.90;;;;;;5140606;27;19907;-61
2023/04/05 01:54:17;;;;;;;;;;;8.20;96.90;;;;;;5140121;27;19939;-61
2023/04/05 01:56:42;;;;;;;;;;;8.30;97.00;;;;;;5140355;27;20073;-61
2023/04/05 01:59:08;;;;;;;;;;;8.30;96.30;;;;;;5139526;27;20335;-61
2023/04/05 02:01:33;;;;;;;;;;;8.30;97.20;;;;;;5139698;27;19907;-61
2023/04/05 02:03:59;;;;;;;;;;;8.40;99.70;;;;;;5140041;27;19911;-61
2023/04/05 02:06:25;;;;;;;;;;;8.40;98.90;;;;;;5139803;27;19994;-61
2023/04/05 02:08:51;;;;;;;;;;;8.40;98.20;;;;;;5139431;27;20481;-61
2023/04/05 02:11:16;;;;;;;;;;;8.60;98.80;;;;;;5140032;27;19907;-61
2023/04/05 02:13:42;;;;;;;;;;;8.60;98.60;;;;;;5139590;27;19960;-61
2023/04/05 02:16:07;;;;;;;;;;;8.60;94.90;;;;;;5139918;27;19907;-61
2023/04/05 02:18:34;;;;;;;;;;;8.60;96.40;;;;;;5139668;27;19908;-61
2023/04/05 02:21:03;;;;;;;;;;;8.60;95.50;;;;;;5139938;27;19911;-61
2023/04/05 02:23:29;;;;;;;;;;;8.60;95.50;;;;;;5139207;27;19917;-61
2023/04/05 02:25:55;;;;;;;;;;;8.60;96.50;;;;;;5139087;27;20020;-61
2023/04/05 02:28:21;;;;;;;;;;;8.60;96.80;;;;;;5139750;27;19977;-61
2023/04/05 02:30:46;;;;;;;;;;;8.60;94.50;;;;;;5139790;27;19977;-61
2023/04/05 02:33:12;;;;;;;;;;;8.60;98.00;;;;;;5139281;27;19911;-61
2023/04/05 02:35:37;;;;;;;;;;;8.60;94.80;;;;;;5139585;27;19955;-61
2023/04/05 02:38:03;;;;;;;;;;;8.60;95.70;;;;;;5139178;27;19930;-61
2023/04/05 02:40:29;;;;;;;;;;;8.40;95.40;;;;;;5139259;27;20362;-61
2023/04/05 02:42:55;;;;;;;;;;;8.50;98.70;;;;;;5139398;27;19912;-61
2023/04/05 02:45:20;;;;;;;;;;;8.40;99.20;;;;;;5139212;27;19916;-61
2023/04/05 02:47:46;;;;;;;;;;;8.40;98.50;;;;;;5139392;27;20286;-61
2023/04/05 02:50:12;;;;;;;;;;;8.40;99.90;;;;;;5138915;27;19912;-61
2023/04/05 02:52:37;;;;;;;;;;;8.30;98.50;;;;;;5139035;27;19914;-61
2023/04/05 02:55:05;;;;;;;;;;;8.20;96.50;;;;;;5139434;27;20303;-61
2023/04/05 02:57:30;;;;;;;;;;;8.20;96.60;;;;;;5138882;27;20366;-61
2023/04/05 02:59:56;;;;;;;;;;;8.20;99.90;;;;;;5139128;28;19990;-61
2023/04/05 03:02:22;;;;;;;;;;;8.10;97.20;;;;;;5138976;28;19907;-61
2023/04/05 03:04:47;;;;;;;;;;;8.00;95.80;;;;;;5139344;28;19915;-61
2023/04/05 03:07:17;;;;;;;;;;;7.80;95.50;;;;;;5138890;28;19941;-61
2023/04/05 03:09:46;;;;;;;;;;;7.90;99.90;;;;;;5138716;28;20399;-61
2023/04/05 03:12:12;;;;;;;;;;;7.90;99.90;;;;;;5141525;27;20274;-61
2023/04/05 03:14:38;;;;;;;;;;;7.80;99.90;;;;;;5143396;27;19907;-61
2023/04/05 03:17:03;;;;;;;;;;;7.90;99.90;;;;;;5143141;27;19960;-61
2023/04/05 03:19:29;;;;;;;;;;;7.90;98.50;;;;;;5143230;27;19994;-61
2023/04/05 03:21:55;;;;;;;;;;;7.90;98.30;;;;;;5142959;27;19908;-61
2023/04/05 03:24:20;;;;;;;;;;;7.80;96.80;;;;;;5143330;27;19907;-61
2023/04/05 03:26:47;;;;;;;;;;;7.70;97.00;;;;;;5142838;27;19972;-61
2023/04/05 03:29:12;;;;;;;;;;;7.70;96.50;;;;;;5142961;27;19911;-61
2023/04/05 03:31:38;;;;;;;;;;;7.70;99.90;;;;;;5143400;27;19914;-61
2023/04/05 03:34:04;;;;;;;;;;;7.70;99.90;;;;;;5142939;27;19955;-61
2023/04/05 03:36:29;;;;;;;;;;;7.80;97.10;;;;;;5143269;27;20282;-61
2023/04/05 03:38:55;;;;;;;;;;;7.70;96.30;;;;;;5142876;27;19952;-61
2023/04/05 03:41:21;;;;;;;;;;;7.70;97.30;;;;;;5142725;27;19908;-61
2023/04/05 03:43:50;;;;;;;;;;;7.70;97.00;;;;;;5142786;27;19914;-61
2023/04/05 03:46:16;;;;;;;;;;;7.60;96.60;;;;;;5142567;27;19911;-61
2023/04/05 03:48:41;;;;;;;;;;;7.60;97.90;;;;;;5142681;27;19968;-61
2023/04/05 03:51:07;;;;;;;;;;;7.40;97.50;;;;;;5142846;27;19907;-61
2023/04/05 03:53:32;;;;;;;;;;;7.50;98.40;;;;;;5142789;27;19965;-61
2023/04/05 03:55:58;;;;;;;;;;;7.50;98.20;;;;;;5142621;27;19908;-61
2023/04/05 03:58:27;;;;;;;;;;;7.40;99.90;;;;;;5142966;27;20594;-61
2023/04/05 04:00:54;;;;;;;;;;;7.30;99.90;;;;;;5142641;27;19933;-61
2023/04/05 04:03:20;;;;;;;;;;;7.40;99.90;;;;;;5142335;27;20401;-61
2023/04/05 04:05:46;;;;;;;;;;;7.50;99.80;;;;;;5142615;27;19912;-61
2023/04/05 04:08:12;;;;;;;;;;;7.40;99.90;;;;;;5142510;27;19937;-61
2023/04/05 04:10:38;;;;;;;;;;;7.30;99.10;;;;;;5142081;27;19914;-61
2023/04/05 04:13:03;;;;;;;;;;;7.30;99.90;;;;;;5142175;27;19998;-61
2023/04/05 04:15:29;;;;;;;;;;;7.30;98.00;;;;;;5142393;27;19908;-61
2023/04/05 04:17:54;;;;;;;;;;;7.20;99.90;;;;;;5142287;27;19915;-61
2023/04/05 04:20:20;;;;;;;;;;;7.20;99.90;;;;;;5142544;27;19914;-61
2023/04/05 04:22:48;;;;;;;;;;;7.20;98.30;;;;;;5141882;27;20371;-61
2023/04/05 04:25:16;;;;;;;;;;;7.10;98.60;;;;;;5142124;27;19919;-61
2023/04/05 04:27:42;;;;;;;;;;;7.00;97.80;;;;;;5141650;27;20363;-61
2023/04/05 04:30:09;;;;;;;;;;;7.00;98.80;;;;;;5141921;27;19914;-61
2023/04/05 04:35:19;;;;;;;;;;;7.00;99.90;;;;;;5142080;27;20235;-61
2023/04/05 04:37:52;;;;;;;;;;;6.90;99.90;;;;;;5142002;27;19907;-61
2023/04/05 04:40:17;;;;;;;;;;;7.00;99.90;;;;;;5141649;27;20297;-61
2023/04/05 04:42:46;;;;;;;;;;;6.90;98.90;;;;;;5141696;27;19907;-61
2023/04/05 04:45:16;;;;;;;;;;;6.90;98.50;;;;;;5141721;27;19998;-61
2023/04/05 04:47:42;;;;;;;;;;;6.90;96.90;;;;;;5141740;27;19907;-61
2023/04/05 04:50:09;;;;;;;;;;;6.90;99.90;;;;;;5141696;27;19908;-61
2023/04/05 04:52:35;;;;;;;;;;;6.80;97.60;;;;;;5141663;27;19914;-61
2023/04/05 04:55:01;;;;;;;;;;;6.80;99.90;;;;;;5141520;27;19908;-61
2023/04/05 04:57:27;;;;;;;;;;;6.80;99.90;;;;;;5141307;27;19950;-61
2023/04/05 04:59:53;;;;;;;;;;;6.80;99.90;;;;;;5141528;27;20313;-61
2023/04/05 05:02:26;;;;;;;;;;;6.60;99.90;;;;;;5141458;27;20453;-61
2023/04/05 05:04:51;;;;;;;;;;;6.80;99.70;;;;;;5141636;27;19951;-61
2023/04/05 05:07:17;;;;;;;;;;;6.80;99.80;;;;;;5141190;27;19907;-60
2023/04/05 05:09:43;;;;;;;;;;;6.70;99.90;;;;;;5141614;27;19911;-61
2023/04/05 05:12:09;;;;;;;;;;;6.80;99.80;;;;;;5141030;27;19972;-60
2023/04/05 05:14:34;;;;;;;;;;;6.70;99.80;;;;;;5141412;27;19994;-61
2023/04/05 05:17:00;;;;;;;;;;;6.70;99.90;;;;;;5141372;27;20374;-61
2023/04/05 05:19:25;;;;;;;;;;;6.70;99.90;;;;;;5141162;27;20378;-61
2023/04/05 05:21:52;;;;;;;;;;;6.80;99.90;;;;;;5140924;27;20366;-61
2023/04/05 05:24:18;;;;;;;;;;;6.70;99.90;;;;;;5140662;27;19907;-61
2023/04/05 05:26:44;;;;;;;;;;;6.70;99.90;;;;;;5140873;27;19927;-61
2023/04/05 05:29:09;;;;;;;;;;;6.70;99.90;;;;;;5140662;27;20024;-61
2023/04/05 05:31:35;;;;;;;;;;;6.70;99.90;;;;;;5140956;27;19908;-61
2023/04/05 05:34:01;;;;;;;;;;;6.80;99.90;;;;;;5140196;27;19971;-60
2023/04/05 05:36:26;;;;;;;;;;;6.80;99.90;;;;;;5140781;27;19952;-61
2023/04/05 05:38:53;;;;;;;;;;;6.80;99.90;;;;;;5140697;27;19911;-61
2023/04/05 05:41:18;;;;;;;;;;;6.90;99.90;;;;;;5140676;27;19911;-61
2023/04/05 05:43:44;;;;;;;;;;;6.90;99.90;;;;;;5140348;27;19914;-61
2023/04/05 05:46:10;;;;;;;;;;;6.90;99.90;;;;;;5139595;27;19911;-61
2023/04/05 05:48:36;;;;;;;;;;;7.00;99.90;;;;;;5139765;27;19908;-61
2023/04/05 05:51:01;;;;;;;;;;;7.00;99.90;;;;;;5139890;27;19907;-61
2023/04/05 05:53:27;;;;;;;;;;;7.00;99.90;;;;;;5140142;27;19911;-61
2023/04/05 05:55:52;;;;;;;;;;;7.00;99.90;;;;;;5139740;27;19918;-61
2023/04/05 05:58:18;;;;;;;;;;;7.10;99.90;;;;;;5139860;27;19931;-60
2023/04/05 06:00:45;;;;;;;;;;;7.20;99.90;;;;;;5139669;27;19952;-61
2023/04/05 06:03:12;;;;;;;;;;;7.30;99.90;;;;;;5139525;27;20344;-61
2023/04/05 06:05:37;;;;;;;;;;;7.30;99.90;;;;;;5139512;27;20374;-61
2023/04/05 06:08:03;;;;;;;;;;;7.40;99.90;;;;;;5140025;27;19907;-61
2023/04/05 06:10:29;;;;;;;;;;;7.40;99.90;;;;;;5139730;27;19907;-61
2023/04/05 06:12:55;;;;;;;;;;;7.40;99.90;;;;;;5139316;27;19915;-61
2023/04/05 06:15:21;;;;;;;;;;;7.60;99.90;;;;;;5139715;27;19911;-61
2023/04/05 06:17:46;;;;;;;;;;;7.40;99.90;;;;;;5139665;27;20374;-61
2023/04/05 06:20:12;;;;;;;;;;;7.60;99.90;;;;;;5139726;27;19919;-61
2023/04/05 06:22:39;;;;;;;;;;;7.70;99.90;;;;;;5139533;27;19908;-61
2023/04/05 06:25:05;;;;;;;;;;;7.70;99.90;;;;;;5139445;27;19961;-61
2023/04/05 06:27:31;;;;;;;;;;;7.80;99.90;;;;;;5139155;27;20286;-61
2023/04/05 06:30:00;;;;;;;;;;;7.90;99.90;;;;;;5139149;27;19908;-61
2023/04/05 06:32:25;;;;;;;;;;;7.90;99.90;;;;;;5139456;27;19965;-61
2023/04/05 06:34:52;;;;;;;;;;;8.00;99.90;;;;;;5139718;27;19907;-61
2023/04/05 06:37:18;;;;;;;;;;;8.00;99.90;;;;;;5139447;27;20290;-61
2023/04/05 06:39:43;;;;;;;;;;;8.00;99.90;;;;;;5139092;27;19915;-61
2023/04/05 06:42:09;;;;;;;;;;;8.10;99.90;;;;;;5139292;27;19908;-61
2023/04/05 06:44:35;;;;;;;;;;;8.10;99.90;;;;;;5138956;27;19954;-61
2023/04/05 06:47:00;;;;;;;;;;;8.20;99.90;;;;;;5138521;27;19919;-61
2023/04/05 06:49:26;;;;;;;;;;;8.20;99.90;;;;;;5138978;27;20342;-61
2023/04/05 06:51:51;;;;;;;;;;;8.30;99.90;;;;;;5139008;27;19996;-61
2023/04/05 06:54:19;;;;;;;;;;;8.30;99.90;;;;;;5138909;27;19908;-61
2023/04/05 06:56:44;;;;;;;;;;;8.30;99.90;;;;;;5138704;27;20362;-61
2023/04/05 06:59:10;;;;;;;;;;;8.40;99.90;;;;;;5139024;27;19907;-61
2023/04/05 07:01:35;;;;;;;;;;;8.40;99.90;;;;;;5138652;28;19919;-61
2023/04/05 07:04:01;;;;;;;;;;;8.50;99.90;;;;;;5139432;28;19931;-61
2023/04/05 07:06:27;;;;;;;;;;;8.50;99.90;;;;;;5138702;28;20677;-61
2023/04/05 07:08:52;;;;;;;;;;;8.60;99.90;;;;;;5138678;28;19912;-61
2023/04/05 07:11:18;;;;;;;;;;;8.60;99.90;;;;;;5120285;28;19961;-61
2023/04/05 07:13:44;;;;;;;;;;;8.70;99.90;;;;;;5138686;28;19954;-61
2023/04/05 07:16:09;;;;;;;;;;;8.70;99.90;;;;;;5138779;28;19914;-61
2023/04/05 07:18:35;;;;;;;;;;;8.80;99.90;;;;;;5138711;28;19931;-61
2023/04/05 07:21:02;;;;;;;;;;;8.80;99.90;;;;;;5138920;28;19907;-61
2023/04/05 07:23:28;;;;;;;;;;;8.90;99.90;;;;;;5138801;28;20017;-61
2023/04/05 07:25:54;;;;;;;;;;;9.00;99.90;;;;;;5138326;28;19917;-61
2023/04/05 07:28:20;;;;;;;;;;;9.10;99.90;;;;;;5138806;28;19912;-61
2023/04/05 07:30:46;;;;;;;;;;;9.10;99.90;;;;;;5138598;28;19915;-61
2023/04/05 07:33:11;;;;;;;;;;;9.20;99.90;;;;;;5138726;28;19908;-61
2023/04/05 07:35:37;;;;;;;;;;;9.30;99.90;;;;;;5138769;28;19914;-61
2023/04/05 07:38:03;;;;;;;;;;;9.40;99.90;;;;;;5138603;28;19911;-60
2023/04/05 07:40:28;;;;;;;;;;;9.50;99.90;;;;;;5138613;28;19907;-61
2023/04/05 07:42:54;;;;;;;;;;;9.60;99.90;;;;;;5138382;28;19908;-60
2023/04/05 07:45:19;;;;;;;;;;;9.60;99.90;;;;;;5138730;28;19911;-61
2023/04/05 07:47:45;;;;;;;;;;;9.70;99.90;;;;;;5138306;28;19908;-61
2023/04/05 07:50:13;;;;;;;;;;;9.80;99.90;;;;;;5138643;28;19999;-61
2023/04/05 07:52:40;;;;;;;;;;;9.90;99.90;;;;;;5138239;28;20263;-61
2023/04/05 07:55:07;;;;;;;;;;;10.00;99.90;;;;;;5138124;28;20278;-61
2023/04/05 07:57:32;;;;;;;;;;;10.10;99.90;;;;;;5139876;27;19915;-61
2023/04/05 07:59:58;;;;;;;;;;;10.10;99.90;;;;;;5141877;27;19907;-61
2023/04/05 08:02:23;;;;;;;;;;;10.50;99.90;;;;;;5142506;27;19919;-61
2023/04/05 08:04:49;;;;;;;;;;;10.40;99.90;;;;;;5142241;27;19908;-61
2023/04/05 08:07:15;;;;;;;;;;;10.50;99.90;;;;;;5142048;27;20369;-61
2023/04/05 08:09:40;;;;;;;;;;;10.50;99.90;;;;;;5142294;27;20263;-61
2023/04/05 08:12:06;;;;;;;;;;;10.60;99.90;;;;;;5142204;27;19967;-61
2023/04/05 08:14:32;;;;;;;;;;;10.70;99.90;;;;;;5142122;27;20028;-61
2023/04/05 08:16:57;;;;;;;;;;;10.70;99.90;;;;;;5141648;27;20367;-61
2023/04/05 08:19:23;;;;;;;;;;;10.90;99.90;;;;;;5141983;27;19912;-61
2023/04/05 08:21:49;;;;;;;;;;;11.00;99.90;;;;;;5141710;27;20406;-61
2023/04/05 08:24:15;;;;;;;;;;;11.00;99.90;;;;;;5141606;27;19914;-61
2023/04/05 08:26:42;;;;;;;;;;;11.00;99.90;;;;;;5141594;27;19926;-61
2023/04/05 08:29:08;;;;;;;;;;;11.10;99.90;;;;;;5141868;27;19967;-61
2023/04/05 08:31:33;;;;;;;;;;;11.30;99.90;;;;;;5141477;27;19912;-61
2023/04/05 08:33:59;;;;;;;;;;;11.40;99.90;;;;;;5141641;27;19911;-61
2023/04/05 08:36:25;;;;;;;;;;;11.40;99.90;;;;;;5141621;27;19907;-61
2023/04/05 08:38:51;;;;;;;;;;;11.60;99.90;;;;;;5141186;27;19914;-61
2023/04/05 08:41:18;;;;;;;;;;;11.70;99.90;;;;;;5141332;27;19915;-61
2023/04/05 08:43:48;;;;;;;;;;;11.80;99.90;;;;;;5141799;27;19907;-61
2023/04/05 08:46:15;;;;;;;;;;;11.90;99.90;;;;;;5141602;27;19982;-61
2023/04/05 08:48:41;;;;;;;;;;;11.80;99.90;;;;;;5141307;27;19914;-61
2023/04/05 08:51:08;;;;;;;;;;;12.10;99.90;;;;;;5141106;27;20272;-61
2023/04/05 08:53:33;;;;;;;;;;;12.10;99.90;;;;;;5140864;27;19907;-61
2023/04/05 08:56:00;;;;;;;;;;;12.30;99.90;;;;;;5141045;27;19911;-61
2023/04/05 08:58:26;;;;;;;;;;;12.30;99.90;;;;;;5141242;27;19971;-61
2023/04/05 09:00:54;;;;;;;;;;;12.40;99.90;;;;;;5140986;27;19907;-61
2023/04/05 09:03:21;;;;;;;;;;;12.70;99.90;;;;;;5140778;27;20002;-61
2023/04/05 09:05:48;;;;;;;;;;;12.80;99.90;;;;;;5140953;27;19911;-61
2023/04/05 09:08:14;;;;;;;;;;;13.00;99.90;;;;;;5140720;27;19907;-61
2023/04/05 09:10:39;;;;;;;;;;;12.90;99.90;;;;;;5140286;27;20382;-61
2023/04/05 09:13:07;;;;;;;;;;;13.00;99.90;;;;;;5140940;27;19908;-61
2023/04/05 09:15:38;;;;;;;;;;;13.10;99.90;;;;;;5140922;27;19907;-61
2023/04/05 09:18:03;;;;;;;;;;;13.20;99.90;;;;;;5141001;27;20469;-61
2023/04/05 09:20:30;;;;;;;;;;;13.50;99.90;;;;;;5140427;27;19931;-61
2023/04/05 09:22:56;;;;;;;;;;;13.60;99.90;;;;;;5140462;27;19915;-61
2023/04/05 09:25:30;;;;;;;;;;;13.60;99.90;;;;;;5140212;27;19915;-61
2023/04/05 09:27:57;;;;;;;;;;;13.80;99.90;;;;;;5140078;27;20396;-61
2023/04/05 09:30:23;;;;;;;;;;;14.10;99.90;;;;;;5140719;27;19911;-61
2023/04/05 09:32:53;;;;;;;;;;;14.10;99.90;;;;;;5140597;27;20350;-61
2023/04/05 09:35:23;;;;;;;;;;;14.30;99.90;;;;;;5140367;27;20002;-61
2023/04/05 09:37:51;;;;;;;;;;;14.30;99.90;;;;;;5140610;27;19955;-61
2023/04/05 09:40:17;;;;;;;;;;;14.30;99.90;;;;;;5140489;27;19960;-61
2023/04/05 09:42:46;;;;;;;;;;;14.40;99.90;;;;;;5140184;27;19912;-61
2023/04/05 09:45:13;;;;;;;;;;;14.60;99.90;;;;;;5140183;27;19915;-61
2023/04/05 09:47:40;;;;;;;;;;;14.50;99.90;;;;;;5138303;27;19907;-61
2023/04/05 09:50:15;;;;;;;;;;;14.40;99.90;;;;;;5132399;27;19911;-61
2023/04/05 09:52:41;;;;;;;;;;;14.20;99.90;;;;;;5130385;27;20297;-61
2023/04/05 09:55:07;;;;;;;;;;;14.40;99.90;;;;;;5139931;27;19907;-61
2023/04/05 09:57:34;;;;;;;;;;;14.30;99.90;;;;;;5139962;27;20374;-61
2023/04/05 09:59:59;;;;;;;;;;;14.40;99.90;;;;;;5139947;27;19919;-61
2023/04/05 10:02:34;;;;;;;;;;;14.30;99.90;;;;;;5140569;27;19908;-61
2023/04/05 10:05:04;;;;;;;;;;;14.40;99.90;;;;;;5139852;27;19911;-61
2023/04/05 10:07:30;;;;;;;;;;;14.30;99.90;;;;;;5139774;27;19908;-61
2023/04/05 10:09:56;;;;;;;;;;;14.20;99.90;;;;;;5138655;27;19908;-61
2023/04/05 10:12:28;;;;;;;;;;;14.20;99.90;;;;;;5137995;27;19907;-62
2023/04/05 10:14:54;;;;;;;;;;;14.20;99.90;;;;;;5138403;27;19914;-61
2023/04/05 10:17:26;;;;;;;;;;;14.20;99.90;;;;;;5139357;27;19908;-61
2023/04/05 10:20:10;;;;;;;;;;;14.20;99.90;;;;;;5139544;27;19914;-61
2023/04/05 10:22:43;;;;;;;;;;;14.00;99.90;;;;;;5139198;27;19912;-61
2023/04/05 10:25:15;;;;;;;;;;;14.30;99.90;;;;;;5121203;27;19950;-61
2023/04/05 10:27:46;;;;;;;;;;;14.60;99.90;;;;;;5139306;27;19919;-61
2023/04/05 10:30:12;;;;;;;;;;;14.70;99.90;;;;;;5139098;27;19907;-62
2023/04/05 10:32:43;;;;;;;;;;;14.90;99.90;;;;;;5139455;27;19914;-61
2023/04/05 10:35:15;;;;;;;;;;;15.20;99.90;;;;;;5139370;27;20301;-62
2023/04/05 10:37:51;;;;;;;;;;;15.70;99.90;;;;;;5139102;27;20359;-61
2023/04/05 10:40:18;;;;;;;;;;;15.80;99.90;;;;;;5139507;27;20362;-61
2023/04/05 10:42:45;;;;;;;;;;;16.20;99.90;;;;;;5139224;27;19962;-61
2023/04/05 10:45:13;;;;;;;;;;;16.00;99.90;;;;;;5139182;27;19907;-61
2023/04/05 10:47:46;;;;;;;;;;;16.30;99.90;;;;;;5138890;27;19907;-62
2023/04/05 10:50:16;;;;;;;;;;;16.70;99.90;;;;;;5139018;27;20045;-61
2023/04/05 10:52:43;;;;;;;;;;;16.80;99.90;;;;;;5138929;27;19908;-61
2023/04/05 10:55:08;;;;;;;;;;;17.00;99.90;;;;;;5138916;27;19911;-62
2023/04/05 10:57:35;;;;;;;;;;;17.20;99.90;;;;;;5139002;27;19908;-61
2023/04/05 11:00:01;;;;;;;;;;;17.30;99.90;;;;;;5138974;27;19907;-62
2023/04/05 11:02:27;;;;;;;;;;;17.50;99.90;;;;;;5138865;28;19915;-61
2023/04/05 11:04:56;;;;;;;;;;;17.40;99.90;;;;;;5138814;28;19966;-62
2023/04/05 11:07:22;;;;;;;;;;;17.30;99.90;;;;;;5138749;28;19937;-62
2023/04/05 11:09:51;;;;;;;;;;;17.40;99.90;;;;;;5138717;28;19908;-62
2023/04/05 11:12:17;;;;;;;;;;;17.30;99.90;;;;;;5138627;28;19908;-61
2023/04/05 11:14:43;;;;;;;;;;;17.30;99.90;;;;;;5138998;28;19914;-62
2023/04/05 11:17:25;;;;;;;;;;;17.60;99.90;;;;;;5138841;28;19929;-62
2023/04/05 11:19:51;;;;;;;;;;;17.80;99.90;;;;;;5138645;28;20285;-62
2023/04/05 11:22:27;;;;;;;;;;;18.10;99.90;;;;;;5103222;28;19994;-62
2023/04/05 11:24:57;;;;;;;;;;;18.80;99.90;;;;;;5138584;28;20278;-62
2023/04/05 11:27:30;;;;;;;;;;;19.30;99.90;;;;;;5138451;28;19924;-62
2023/04/05 11:29:57;;;;;;;;;;;19.60;97.90;;;;;;5138641;28;20002;-61
2023/04/05 11:32:23;;;;;;;;;;;19.50;98.60;;;;;;5140255;27;19949;-62
2023/04/05 11:35:09;;;;;;;;;;;19.30;94.80;;;;;;5142852;27;20251;-62
2023/04/05 11:37:54;;;;;;;;;;;19.10;99.90;;;;;;5128850;27;20350;-61
2023/04/05 11:40:23;;;;;;;;;;;19.10;99.20;;;;;;5142658;27;19907;-62
2023/04/05 11:42:56;;;;;;;;;;;18.90;97.00;;;;;;5142727;27;20032;-62
2023/04/05 11:45:22;;;;;;;;;;;19.00;99.00;;;;;;5142299;27;19955;-62
2023/04/05 11:47:48;;;;;;;;;;;18.90;95.50;;;;;;5142675;27;19922;-61
2023/04/05 11:50:13;;;;;;;;;;;18.30;96.40;;;;;;5142377;27;19929;-62
2023/04/05 11:52:39;;;;;;;;;;;18.20;98.10;;;;;;5142553;27;19908;-62
2023/04/05 11:55:05;;;;;;;;;;;18.40;98.10;;;;;;5142393;27;19914;-62
2023/04/05 11:57:32;;;;;;;;;;;18.20;94.70;;;;;;5142170;27;19907;-62
2023/04/05 11:59:57;;;;;;;;;;;18.00;99.90;;;;;;5142554;27;20374;-62
2023/04/05 12:02:23;;;;;;;;;;;17.90;99.10;;;;;;5142323;27;19911;-62
2023/04/05 12:04:56;;;;;;;;;;;18.00;98.60;;;;;;5142177;27;19947;-62
2023/04/05 12:07:23;;;;;;;;;;;18.30;99.90;;;;;;5141929;27;19911;-62
2023/04/05 12:10:00;;;;;;;;;;;18.10;99.10;;;;;;5142541;27;19907;-62
2023/04/05 12:12:25;;;;;;;;;;;18.50;99.10;;;;;;5142248;27;19915;-62
2023/04/05 12:14:56;;;;;;;;;;;18.70;99.20;;;;;;5142431;27;19907;-62
2023/04/05 12:17:36;;;;;;;;;;;18.80;97.90;;;;;;5141897;27;19990;-62
2023/04/05 12:20:02;;;;;;;;;;;18.20;97.50;;;;;;5142324;27;19947;-62
2023/04/05 12:22:27;;;;;;;;;;;19.00;99.80;;;;;;5141505;27;19928;-62
2023/04/05 12:24:53;;;;;;;;;;;19.90;94.70;;;;;;5141921;27;19912;-62
2023/04/05 12:27:19;;;;;;;;;;;20.30;91.70;;;;;;5141585;27;20395;-62
2023/04/05 12:30:03;;;;;;;;;;;21.00;95.40;;;;;;5141678;27;19916;-62
2023/04/05 12:32:34;;;;;;;;;;;21.20;84.30;;;;;;5141885;27;19907;-62
2023/04/05 12:35:00;;;;;;;;;;;21.60;82.10;;;;;;5141148;27;20496;-62
2023/04/05 12:37:26;;;;;;;;;;;21.90;89.10;;;;;;5141411;27;19973;-62
2023/04/05 12:39:53;;;;;;;;;;;21.60;79.00;;;;;;5141373;27;20300;-62
2023/04/05 12:42:21;;;;;;;;;;;21.80;75.00;;;;;;5141493;27;19914;-62
2023/04/05 12:45:01;;;;;;;;;;;21.00;73.20;;;;;;5141391;27;19907;-62
2023/04/05 12:47:27;;;;;;;;;;;21.40;72.20;;;;;;5141620;27;19912;-62
2023/04/05 12:49:54;;;;;;;;;;;21.60;78.10;;;;;;5141281;27;19914;-62
2023/04/05 12:52:20;;;;;;;;;;;22.10;78.90;;;;;;5141451;27;20286;-62
2023/04/05 12:54:52;;;;;;;;;;;21.60;68.80;;;;;;5141243;27;19907;-62
2023/04/05 12:57:26;;;;;;;;;;;21.60;76.20;;;;;;5141206;27;19915;-62
2023/04/05 12:59:52;;;;;;;;;;;21.60;72.50;;;;;;5141289;27;19908;-62
2023/04/05 13:02:17;;;;;;;;;;;20.80;74.20;;;;;;5140973;27;19928;-62
2023/04/05 13:04:43;;;;;;;;;;;21.00;72.90;;;;;;5141046;27;19914;-62
2023/04/05 13:07:09;;;;;;;;;;;21.10;74.00;;;;;;5140936;27;19911;-62
2023/04/05 13:09:35;;;;;;;;;;;20.90;75.00;;;;;;5141073;27;19998;-62
2023/04/05 13:12:01;;;;;;;;;;;21.30;75.20;;;;;;5140801;27;19960;-62
2023/04/05 13:14:27;;;;;;;;;;;21.40;80.90;;;;;;5141008;27;19907;-62
2023/04/05 13:16:52;;;;;;;;;;;20.80;71.90;;;;;;5140755;27;19907;-62
2023/04/05 13:19:18;;;;;;;;;;;20.90;74.20;;;;;;5140917;27;20592;-62
2023/04/05 13:21:43;;;;;;;;;;;20.70;74.70;;;;;;5140690;27;19907;-62
2023/04/05 13:24:09;;;;;;;;;;;20.50;76.30;;;;;;5140880;27;19908;-62
2023/04/05 13:26:35;;;;;;;;;;;20.80;79.00;;;;;;5140443;27;19927;-62
2023/04/05 13:29:02;;;;;;;;;;;20.50;72.40;;;;;;5140471;27;19929;-62
2023/04/05 13:31:27;;;;;;;;;;;20.30;72.70;;;;;;5140249;27;19912;-62
2023/04/05 13:33:53;;;;;;;;;;;20.40;74.10;;;;;;5140423;27;19908;-62
2023/04/05 13:36:21;;;;;;;;;;;20.30;74.00;;;;;;5139590;27;20214;-62
2023/04/05 13:38:46;;;;;;;;;;;20.50;74.50;;;;;;5140514;27;19943;-62
2023/04/05 13:41:14;;;;;;;;;;;19.90;78.30;;;;;;5140334;27;19907;-62
2023/04/05 13:43:40;;;;;;;;;;;20.20;78.00;;;;;;5140173;27;20358;-62
2023/04/05 13:46:05;;;;;;;;;;;19.80;74.00;;;;;;5140313;27;19911;-62
2023/04/05 13:48:31;;;;;;;;;;;19.30;82.60;;;;;;5140063;27;19907;-62
2023/04/05 13:50:57;;;;;;;;;;;19.70;79.90;;;;;;5140268;27;19907;-62
2023/04/05 13:53:22;;;;;;;;;;;19.90;79.00;;;;;;5140163;27;19939;-61
2023/04/05 13:55:48;;;;;;;;;;;20.20;78.80;;;;;;5139545;27;19929;-62
2023/04/05 13:58:13;;;;;;;;;;;19.50;80.50;;;;;;5139939;27;19907;-62
2023/04/05 14:00:39;;;;;;;;;;;20.00;80.00;;;;;;5140396;27;19907;-62
2023/04/05 14:03:05;;;;;;;;;;;20.10;78.40;;;;;;5139886;27;19911;-62
2023/04/05 14:05:30;;;;;;;;;;;20.10;75.90;;;;;;5121153;27;19911;-62
2023/04/05 14:07:56;;;;;;;;;;;20.10;74.30;;;;;;5140086;27;19914;-62
2023/04/05 14:10:22;;;;;;;;;;;19.40;78.40;;;;;;5139864;27;19907;-62
2023/04/05 14:12:48;;;;;;;;;;;19.00;76.20;;;;;;5139835;27;19914;-62
2023/04/05 14:15:14;;;;;;;;;;;18.80;77.00;;;;;;5139811;27;19908;-62
2023/04/05 14:17:39;;;;;;;;;;;18.70;77.90;;;;;;5139498;27;19929;-62
2023/04/05 14:20:06;;;;;;;;;;;18.70;77.20;;;;;;5139852;27;19908;-62
2023/04/05 14:22:32;;;;;;;;;;;18.50;77.10;;;;;;5139943;27;19968;-62
2023/04/05 14:24:58;;;;;;;;;;;18.50;78.50;;;;;;5139647;27;19908;-62